Time;durP1;ratioP1;P1;durP2;ratioP2;P2;SDS_P1;SDS_P2;PMS_P1;PMS_P2;Temp;Humidity;BMP_temperature;BMP_pressure;BME280_temperature;BME280_humidity;BME280_pressure;Samples;Min_cycle;Max_cycle;Signal;HPM_P1;HPM_P2
2023/11/28 00:01:48;;;;;;;5.73;5.33;;;4.30;99.10;;;;;;10451003;28;20237;-61
2023/11/28 00:06:53;;;;;;;5.90;5.40;;;4.30;98.10;;;;;;10429773;28;20222;-59
2023/11/28 00:11:58;;;;;;;5.17;4.77;;;4.30;98.40;;;;;;10442073;28;20221;-60
2023/11/28 00:17:01;;;;;;;5.53;5.07;;;4.30;98.60;;;;;;10442633;28;20251;-61
2023/11/28 00:22:06;;;;;;;6.23;5.50;;;4.30;98.30;;;;;;10445998;28;20215;-61
2023/11/28 00:27:11;;;;;;;4.77;4.37;;;4.30;99.10;;;;;;10439371;28;20268;-62
2023/11/28 00:32:14;;;;;;;4.07;3.77;;;4.30;98.90;;;;;;10435806;28;20219;-59
2023/11/28 00:37:19;;;;;;;3.63;3.33;;;4.30;98.20;;;;;;10451968;28;20196;-60
2023/11/28 00:42:23;;;;;;;3.37;3.17;;;4.30;98.70;;;;;;10443687;28;20784;-60
2023/11/28 00:47:26;;;;;;;2.97;2.77;;;4.40;99.00;;;;;;10440107;28;20218;-60
2023/11/28 00:52:32;;;;;;;3.13;2.70;;;4.30;98.50;;;;;;10429721;28;20869;-61
2023/11/28 00:57:35;;;;;;;2.50;2.33;;;4.30;99.30;;;;;;10427417;28;20196;-58
2023/11/28 01:02:39;;;;;;;2.60;2.40;;;4.30;98.60;;;;;;10429502;28;20227;-60
2023/11/28 01:07:45;;;;;;;2.27;2.13;;;4.30;99.00;;;;;;10437916;28;20226;-60
2023/11/28 01:12:50;;;;;;;1.90;1.80;;;4.20;99.00;;;;;;10440032;28;20281;-60
2023/11/28 01:17:54;;;;;;;2.10;2.00;;;4.20;98.80;;;;;;10441900;28;20716;-61
2023/11/28 01:22:59;;;;;;;2.17;1.97;;;4.20;99.00;;;;;;10439571;28;20246;-61
2023/11/28 01:28:03;;;;;;;1.83;1.73;;;4.20;98.50;;;;;;10428110;28;20221;-61
2023/11/28 01:33:06;;;;;;;2.00;1.90;;;4.20;98.30;;;;;;10450362;28;20590;-60
2023/11/28 01:38:11;;;;;;;1.90;1.80;;;4.10;98.40;;;;;;10393785;28;20201;-61
2023/11/28 01:43:24;;;;;;;2.33;2.13;;;4.20;98.30;;;;;;10430462;28;20694;-61
2023/11/28 01:48:28;;;;;;;2.20;2.10;;;4.20;98.90;;;;;;10421627;28;20223;-61
2023/11/28 01:53:34;;;;;;;2.50;2.30;;;4.20;98.70;;;;;;10384995;28;20256;-62
2023/11/28 01:58:39;;;;;;;2.30;2.20;;;4.30;98.60;;;;;;10391914;28;20230;-62
2023/11/28 02:03:43;;;;;;;2.23;2.13;;;4.30;99.80;;;;;;10448852;28;20606;-60
2023/11/28 02:08:48;;;;;;;2.20;2.10;;;4.30;99.00;;;;;;10409326;28;20247;-62
2023/11/28 02:13:52;;;;;;;3.20;2.87;;;4.30;99.20;;;;;;10404033;28;20258;-61
2023/11/28 02:18:55;;;;;;;2.83;2.63;;;4.30;98.60;;;;;;10455623;28;20268;-65
2023/11/28 02:24:01;;;;;;;2.70;2.50;;;4.20;99.00;;;;;;10455901;28;20280;-64
2023/11/28 02:29:06;;;;;;;3.10;2.90;;;4.20;98.80;;;;;;10395193;28;20251;-63
2023/11/28 02:34:09;;;;;;;3.10;2.80;;;4.30;98.80;;;;;;10454709;28;20222;-64
2023/11/28 02:39:13;;;;;;;4.03;3.73;;;4.20;99.20;;;;;;10457385;28;20800;-63
2023/11/28 02:44:18;;;;;;;4.00;3.70;;;4.30;99.10;;;;;;10453516;28;20767;-61
2023/11/28 02:49:22;;;;;;;4.20;3.90;;;4.30;99.60;;;;;;10454254;28;20237;-63
2023/11/28 02:54:25;;;;;;;4.37;4.00;;;4.20;98.40;;;;;;10453714;28;20800;-61
2023/11/28 02:59:30;;;;;;;6.40;5.80;;;4.20;98.50;;;;;;10455080;28;20614;-61
2023/11/28 03:04:34;;;;;;;5.97;5.47;;;4.30;98.60;;;;;;10454316;28;20206;-60
2023/11/28 03:09:38;;;;;;;5.87;5.43;;;4.30;98.60;;;;;;10453339;28;20221;-62
2023/11/28 03:14:43;;;;;;;6.70;6.10;;;4.20;97.70;;;;;;10453169;28;20199;-62
2023/11/28 03:19:46;;;;;;;5.53;5.03;;;4.20;99.40;;;;;;10452739;28;20222;-61
2023/11/28 03:24:51;;;;;;;5.60;5.20;;;4.20;98.80;;;;;;10443609;28;20253;-62
2023/11/28 03:29:56;;;;;;;5.10;4.70;;;4.30;98.90;;;;;;10454637;28;20260;-62
2023/11/28 03:35:00;;;;;;;5.17;4.77;;;4.20;97.80;;;;;;10454100;28;20618;-61
2023/11/28 03:40:05;;;;;;;5.50;5.10;;;4.20;98.30;;;;;;10450121;28;20223;-63
2023/11/28 03:45:12;;;;;;;6.17;5.57;;;4.20;98.60;;;;;;10457850;28;20723;-58
2023/11/28 03:50:16;;;;;;;5.10;4.70;;;4.20;98.10;;;;;;10449767;28;20236;-60
2023/11/28 03:55:20;;;;;;;5.80;5.30;;;4.30;98.10;;;;;;10451510;28;20841;-63
2023/11/28 04:00:26;;;;;;;5.67;5.17;;;4.30;98.00;;;;;;10447379;28;20707;-60
2023/11/28 04:05:29;;;;;;;6.10;5.53;;;4.30;98.10;;;;;;10438584;28;20266;-63
2023/11/28 04:10:33;;;;;;;6.80;6.20;;;4.30;97.90;;;;;;10442365;28;20225;-63
2023/11/28 04:15:38;;;;;;;6.70;6.03;;;4.30;97.80;;;;;;10416844;28;20210;-61
2023/11/28 04:20:42;;;;;;;8.20;5.83;;;4.40;98.10;;;;;;10431515;28;20579;-62
2023/11/28 04:25:46;;;;;;;6.60;6.00;;;4.40;98.10;;;;;;10440704;28;20744;-62
2023/11/28 04:30:51;;;;;;;7.03;6.23;;;4.40;98.00;;;;;;10448180;28;20325;-60
2023/11/28 04:35:55;;;;;;;7.13;6.47;;;4.40;97.30;;;;;;10452502;28;20211;-60
2023/11/28 04:40:58;;;;;;;6.37;5.77;;;4.40;98.50;;;;;;10451683;28;20214;-65
2023/11/28 04:46:03;;;;;;;7.03;5.60;;;4.40;97.20;;;;;;10451440;28;20230;-63
2023/11/28 04:51:07;;;;;;;6.73;6.03;;;4.40;97.90;;;;;;10451982;28;20277;-64
2023/11/28 04:56:11;;;;;;;6.53;5.20;;;4.30;97.60;;;;;;10451462;28;20207;-63
2023/11/28 05:01:16;;;;;;;6.20;5.60;;;4.20;97.10;;;;;;10452133;28;20635;-60
2023/11/28 05:06:20;;;;;;;5.73;5.23;;;4.20;96.60;;;;;;10453199;28;20281;-63
2023/11/28 05:11:24;;;;;;;5.70;4.63;;;4.20;96.90;;;;;;10452922;28;20333;-62
2023/11/28 05:16:29;;;;;;;5.87;5.27;;;4.20;96.50;;;;;;10441894;28;20658;-59
2023/11/28 05:21:51;;;;;;;6.63;5.93;;;4.20;96.40;;;;;;10451002;28;20222;-62
2023/11/28 05:26:56;;;;;;;7.47;6.60;;;4.20;96.70;;;;;;10405791;28;20200;-63
2023/11/28 05:32:06;;;;;;;11.20;6.57;;;4.20;96.70;;;;;;10448542;28;20259;-62
2023/11/28 05:37:10;;;;;;;9.10;6.33;;;4.30;96.50;;;;;;10408928;28;20285;-63
2023/11/28 05:42:14;;;;;;;8.33;7.10;;;4.30;96.90;;;;;;10443222;28;20213;-63
2023/11/28 05:47:19;;;;;;;7.07;6.17;;;4.40;96.80;;;;;;10447837;28;20273;-64
2023/11/28 05:52:24;;;;;;;8.43;6.23;;;4.40;97.00;;;;;;10444465;28;20246;-65
2023/11/28 05:57:28;;;;;;;8.13;6.00;;;4.40;96.40;;;;;;10445571;28;20670;-63
2023/11/28 06:02:33;;;;;;;10.00;5.80;;;4.30;96.20;;;;;;10447202;28;20691;-63
2023/11/28 06:07:38;;;;;;;6.30;5.63;;;4.30;96.10;;;;;;10451371;28;20229;-62
2023/11/28 06:12:42;;;;;;;8.90;5.77;;;4.30;95.30;;;;;;10437937;28;20275;-63
2023/11/28 06:17:47;;;;;;;5.77;5.23;;;4.30;95.00;;;;;;10445530;28;20256;-64
2023/11/28 06:22:51;;;;;;;5.80;5.10;;;4.20;95.00;;;;;;10445961;28;20219;-63
2023/11/28 06:27:55;;;;;;;8.27;5.00;;;4.20;95.00;;;;;;10446649;28;20209;-64
2023/11/28 06:33:00;;;;;;;5.23;4.27;;;4.10;94.90;;;;;;10446180;28;20224;-63
2023/11/28 06:38:03;;;;;;;6.07;4.30;;;4.20;95.00;;;;;;10446813;28;21309;-61
2023/11/28 06:43:07;;;;;;;5.93;4.43;;;4.20;94.50;;;;;;10446914;28;20239;-65
2023/11/28 06:48:12;;;;;;;5.53;4.40;;;4.20;94.00;;;;;;10444801;28;20851;-66
2023/11/28 06:53:16;;;;;;;4.57;3.67;;;4.40;92.60;;;;;;10448670;28;20231;-66
2023/11/28 06:58:20;;;;;;;5.50;3.87;;;4.40;93.30;;;;;;10454448;28;20196;-66
2023/11/28 07:03:26;;;;;;;4.00;3.60;;;4.30;93.50;;;;;;10451862;28;20263;-68
2023/11/28 07:08:32;;;;;;;3.60;3.30;;;4.30;93.20;;;;;;10451513;28;20225;-66
2023/11/28 07:13:36;;;;;;;6.33;3.30;;;4.30;93.30;;;;;;10452192;28;20283;-67
2023/11/28 07:18:41;;;;;;;4.23;2.90;;;4.30;93.00;;;;;;10443012;28;20200;-65
2023/11/28 07:23:45;;;;;;;4.40;3.13;;;4.30;93.30;;;;;;10453727;28;20223;-64
2023/11/28 07:28:49;;;;;;;3.60;3.30;;;4.20;93.10;;;;;;10452525;28;20205;-65
2023/11/28 07:33:54;;;;;;;4.80;3.50;;;4.10;93.70;;;;;;10453977;28;20665;-65
2023/11/28 07:38:57;;;;;;;3.73;3.33;;;4.00;92.80;;;;;;10449860;28;20193;-67
2023/11/28 07:44:03;;;;;;;4.37;3.97;;;4.00;93.40;;;;;;10446928;28;20222;-66
2023/11/28 07:49:08;;;;;;;6.43;5.00;;;4.00;92.90;;;;;;10454224;28;20201;-65
2023/11/28 07:54:12;;;;;;;4.10;3.70;;;4.10;92.80;;;;;;10452324;28;20220;-65
2023/11/28 07:59:15;;;;;;;5.47;4.50;;;4.20;92.70;;;;;;10451962;28;20216;-67
2023/11/28 08:04:20;;;;;;;6.20;3.97;;;4.10;92.90;;;;;;10449985;28;20253;-66
2023/11/28 08:09:24;;;;;;;5.37;3.43;;;4.10;92.70;;;;;;10448547;28;20199;-67
2023/11/28 08:14:28;;;;;;;7.17;3.87;;;4.10;92.80;;;;;;10449760;28;20273;-66
2023/11/28 08:19:33;;;;;;;9.60;4.07;;;4.10;92.60;;;;;;10450669;28;20269;-66
2023/11/28 08:24:37;;;;;;;6.03;3.43;;;4.10;93.20;;;;;;10449522;28;20195;-67
2023/11/28 08:29:40;;;;;;;7.10;4.07;;;4.10;92.80;;;;;;10449583;28;20201;-68
2023/11/28 08:34:45;;;;;;;6.27;3.50;;;4.10;92.10;;;;;;10445783;28;20285;-63
2023/11/28 08:39:49;;;;;;;3.80;2.90;;;4.10;93.10;;;;;;10447191;28;20195;-62
2023/11/28 08:44:53;;;;;;;3.33;2.87;;;4.10;92.90;;;;;;10444032;28;20654;-67
2023/11/28 08:49:59;;;;;;;3.17;2.73;;;4.10;92.60;;;;;;10446620;28;20636;-64
2023/11/28 08:55:03;;;;;;;3.83;2.60;;;4.20;92.20;;;;;;10447139;28;20271;-64
2023/11/28 09:00:08;;;;;;;4.43;2.73;;;4.20;92.90;;;;;;10448203;28;20216;-64
2023/11/28 09:05:14;;;;;;;5.23;4.40;;;4.10;92.00;;;;;;10449224;28;20210;-63
2023/11/28 09:10:18;;;;;;;2.37;2.17;;;4.10;91.90;;;;;;10443109;28;20250;-63
2023/11/28 09:15:22;;;;;;;3.20;2.50;;;4.20;91.70;;;;;;10448610;28;20614;-63
2023/11/28 09:20:27;;;;;;;2.90;2.60;;;4.20;92.10;;;;;;10446617;28;20227;-63
2023/11/28 09:25:31;;;;;;;3.27;2.77;;;4.40;91.70;;;;;;10445286;28;20267;-63
2023/11/28 09:30:34;;;;;;;3.13;2.83;;;4.50;91.50;;;;;;10443746;28;20218;-63
2023/11/28 09:35:40;;;;;;;4.00;2.93;;;4.40;91.00;;;;;;10446135;28;20761;-65
2023/11/28 09:40:44;;;;;;;3.13;2.83;;;4.50;92.10;;;;;;10451205;28;20216;-65
2023/11/28 09:45:48;;;;;;;2.67;2.47;;;4.50;91.90;;;;;;10442982;28;20205;-66
2023/11/28 09:50:54;;;;;;;3.20;2.90;;;4.50;91.10;;;;;;10447198;28;20666;-66
2023/11/28 09:56:01;;;;;;;3.90;2.67;;;4.70;91.20;;;;;;10442706;28;20643;-66
2023/11/28 10:01:07;;;;;;;2.77;2.53;;;4.70;91.50;;;;;;10446519;28;20211;-66
2023/11/28 10:06:18;;;;;;;4.27;2.93;;;4.80;90.90;;;;;;10446058;28;20210;-65
2023/11/28 10:11:24;;;;;;;2.60;2.40;;;4.80;90.20;;;;;;10444402;28;20220;-66
2023/11/28 10:16:42;;;;;;;2.80;2.30;;;4.90;90.40;;;;;;10441473;28;20211;-66
2023/11/28 10:21:48;;;;;;;2.90;2.60;;;5.00;90.20;;;;;;10445769;28;20219;-66
2023/11/28 10:26:56;;;;;;;3.03;2.73;;;5.00;89.60;;;;;;10446570;28;20223;-66
2023/11/28 10:32:01;;;;;;;3.27;2.83;;;5.10;90.10;;;;;;10450291;28;20224;-66
2023/11/28 10:37:07;;;;;;;3.10;2.80;;;5.20;89.60;;;;;;10447390;28;20258;-66
2023/11/28 10:42:11;;;;;;;3.57;3.07;;;5.20;90.10;;;;;;10451561;28;20219;-66
2023/11/28 10:47:17;;;;;;;3.40;3.10;;;5.20;90.50;;;;;;10454426;28;20584;-66
2023/11/28 10:52:24;;;;;;;4.00;3.70;;;5.20;90.20;;;;;;10419926;28;20235;-65
2023/11/28 10:57:29;;;;;;;4.20;3.53;;;5.20;91.30;;;;;;10413360;28;20206;-65
2023/11/28 11:02:33;;;;;;;3.17;2.73;;;5.30;91.20;;;;;;10412808;28;20217;-65
2023/11/28 11:07:38;;;;;;;3.03;2.73;;;5.30;91.60;;;;;;10413932;28;20199;-66
2023/11/28 11:12:44;;;;;;;2.83;2.63;;;5.30;92.00;;;;;;10410312;28;20268;-65
2023/11/28 11:17:57;;;;;;;3.40;3.10;;;5.40;90.40;;;;;;10409376;28;20210;-65
2023/11/28 11:23:03;;;;;;;4.37;3.00;;;5.40;89.90;;;;;;10412244;28;20221;-65
2023/11/28 11:28:08;;;;;;;3.43;3.13;;;5.50;90.50;;;;;;10410475;28;20760;-65
2023/11/28 11:33:13;;;;;;;3.57;3.20;;;5.60;90.00;;;;;;10404397;28;20275;-65
2023/11/28 11:38:28;;;;;;;3.40;3.10;;;5.60;88.90;;;;;;10407082;28;20214;-65
2023/11/28 11:43:36;;;;;;;4.17;3.00;;;5.50;88.60;;;;;;10412081;28;20240;-65
2023/11/28 11:48:41;;;;;;;3.63;3.33;;;5.60;88.50;;;;;;10402008;28;20198;-65
2023/11/28 11:53:47;;;;;;;3.20;2.90;;;5.60;90.10;;;;;;10403564;28;20223;-65
2023/11/28 11:58:50;;;;;;;6.77;4.63;;;5.60;90.50;;;;;;10403922;28;20206;-65
2023/11/28 12:03:59;;;;;;;4.20;3.60;;;5.50;90.10;;;;;;10412184;28;20228;-65
2023/11/28 12:09:04;;;;;;;4.13;3.73;;;5.50;91.10;;;;;;10413747;28;20268;-64
2023/11/28 12:14:08;;;;;;;3.90;3.50;;;5.50;90.20;;;;;;10411120;28;20229;-65
2023/11/28 12:19:12;;;;;;;3.93;3.50;;;5.50;90.20;;;;;;10403235;28;20202;-65
2023/11/28 12:24:17;;;;;;;3.87;3.20;;;5.50;89.70;;;;;;10404035;28;20268;-65
2023/11/28 12:29:21;;;;;;;4.27;3.77;;;5.50;89.40;;;;;;10409380;28;20261;-65
2023/11/28 12:34:25;;;;;;;4.27;3.63;;;5.60;89.50;;;;;;10406626;28;20226;-65
2023/11/28 12:39:30;;;;;;;4.67;3.90;;;5.60;91.10;;;;;;10411048;28;20210;-64
2023/11/28 12:44:36;;;;;;;4.10;3.03;;;5.60;90.40;;;;;;10409066;28;20198;-65
2023/11/28 12:49:41;;;;;;;4.03;3.47;;;5.50;89.20;;;;;;10411750;28;20199;-62
2023/11/28 12:54:46;;;;;;;5.00;3.77;;;5.60;89.10;;;;;;10410321;28;20225;-63
2023/11/28 12:59:49;;;;;;;3.60;2.90;;;5.60;88.30;;;;;;10405269;28;20667;-62
2023/11/28 13:04:53;;;;;;;4.37;2.90;;;5.60;87.60;;;;;;10395599;28;20268;-63
2023/11/28 13:09:59;;;;;;;2.40;2.20;;;5.50;88.40;;;;;;10413650;28;20227;-62
2023/11/28 13:15:04;;;;;;;2.13;1.93;;;5.50;90.00;;;;;;10415729;28;20226;-61
2023/11/28 13:20:10;;;;;;;2.20;2.00;;;5.50;86.10;;;;;;10404048;28;20244;-62
2023/11/28 13:25:16;;;;;;;1.60;1.50;;;5.50;84.30;;;;;;10405285;28;20260;-62
2023/11/28 13:30:20;;;;;;;1.50;1.40;;;5.60;83.80;;;;;;10401895;28;20233;-62
2023/11/28 13:35:25;;;;;;;1.47;1.37;;;5.60;84.70;;;;;;10404772;28;20562;-64
2023/11/28 13:40:30;;;;;;;1.60;1.50;;;5.60;83.40;;;;;;10397170;28;20221;-63
2023/11/28 13:45:34;;;;;;;1.97;1.50;;;5.50;82.60;;;;;;10401289;28;20572;-64
2023/11/28 13:50:38;;;;;;;2.33;1.63;;;5.50;81.00;;;;;;10403833;28;20218;-64
2023/11/28 13:55:44;;;;;;;1.73;1.50;;;5.50;81.00;;;;;;10406173;28;20276;-65
2023/11/28 14:00:47;;;;;;;3.60;2.90;;;5.60;81.00;;;;;;10410566;28;20227;-65
2023/11/28 14:05:51;;;;;;;2.80;2.20;;;5.50;81.10;;;;;;10416181;28;20744;-65
2023/11/28 14:10:56;;;;;;;2.20;1.90;;;5.50;81.40;;;;;;10415791;28;20219;-65
2023/11/28 14:16:03;;;;;;;2.60;2.00;;;5.50;80.60;;;;;;10409358;28;20224;-65
2023/11/28 14:21:07;;;;;;;2.60;2.20;;;5.50;81.80;;;;;;10415410;28;20225;-65
2023/11/28 14:26:13;;;;;;;2.83;2.23;;;5.50;80.50;;;;;;10419410;28;20199;-65
2023/11/28 14:31:18;;;;;;;2.03;1.80;;;5.50;80.70;;;;;;10409606;28;20287;-65
2023/11/28 14:36:22;;;;;;;2.37;2.07;;;5.50;81.90;;;;;;10410154;28;20270;-65
2023/11/28 14:41:27;;;;;;;2.60;2.40;;;5.70;84.50;;;;;;10407534;28;20287;-65
2023/11/28 14:46:31;;;;;;;3.15;2.83;;;5.70;82.80;;;;;;10409551;28;20507;-65
2023/11/28 14:51:36;;;;;;;3.60;2.53;;;5.80;78.50;;;;;;10411632;28;20222;-65
2023/11/28 14:56:42;;;;;;;3.13;2.53;;;5.70;80.00;;;;;;10418762;28;20219;-65
2023/11/28 15:01:45;;;;;;;4.10;2.23;;;5.60;79.40;;;;;;10409055;28;20223;-65
2023/11/28 15:06:51;;;;;;;2.43;2.10;;;5.60;79.80;;;;;;10410396;28;20719;-65
2023/11/28 15:11:57;;;;;;;2.27;1.87;;;5.50;79.20;;;;;;10410909;28;20246;-65
2023/11/28 15:17:01;;;;;;;2.63;2.43;;;5.40;80.70;;;;;;10416379;28;20226;-64
2023/11/28 15:22:07;;;;;;;2.43;2.23;;;5.40;79.30;;;;;;10409051;28;20225;-64
2023/11/28 15:27:12;;;;;;;2.77;2.30;;;5.40;79.40;;;;;;10392516;28;20260;-64
2023/11/28 15:32:15;;;;;;;4.10;2.50;;;5.40;79.20;;;;;;10402092;28;20569;-64
2023/11/28 15:37:19;;;;;;;2.80;2.53;;;5.30;80.10;;;;;;10410050;28;20248;-64
2023/11/28 15:42:24;;;;;;;3.60;3.30;;;5.30;79.90;;;;;;10408450;28;20641;-64
2023/11/28 15:47:27;;;;;;;4.40;3.67;;;5.30;79.60;;;;;;10403602;28;20193;-60
2023/11/28 15:52:32;;;;;;;4.33;3.03;;;5.30;80.50;;;;;;10408141;28;20588;-64
2023/11/28 15:57:39;;;;;;;3.97;2.90;;;5.30;80.00;;;;;;10408778;28;20221;-63
2023/11/28 16:02:43;;;;;;;4.30;2.90;;;5.20;80.60;;;;;;10408289;28;20222;-64
2023/11/28 16:07:52;;;;;;;6.30;5.17;;;5.20;80.70;;;;;;10409844;28;20267;-63
2023/11/28 16:12:58;;;;;;;4.30;3.60;;;5.20;80.20;;;;;;10408796;28;20600;-63
2023/11/28 16:18:02;;;;;;;4.37;3.90;;;5.10;81.20;;;;;;10402530;28;20728;-65
2023/11/28 16:23:06;;;;;;;6.30;3.90;;;5.10;80.80;;;;;;10403148;28;20218;-64
2023/11/28 16:28:11;;;;;;;5.53;3.85;;;5.10;80.10;;;;;;10403012;28;20470;-62
2023/11/28 16:33:16;;;;;;;5.63;5.03;;;5.10;80.70;;;;;;10399781;28;21049;-62
2023/11/28 16:38:21;;;;;;;6.40;5.07;;;5.30;79.60;;;;;;10406565;28;20265;-62
2023/11/28 16:43:27;;;;;;;7.43;4.90;;;5.30;79.80;;;;;;10359751;28;20222;-61
2023/11/28 16:48:30;;;;;;;7.33;6.20;;;5.20;79.80;;;;;;10404370;28;20549;-60
2023/11/28 16:53:34;;;;;;;6.20;4.80;;;5.10;80.80;;;;;;10403395;28;20248;-62
2023/11/28 16:58:39;;;;;;;8.40;5.43;;;5.00;80.70;;;;;;10400156;28;20223;-62
2023/11/28 17:03:43;;;;;;;6.93;6.03;;;4.90;80.80;;;;;;10403346;28;20228;-62
2023/11/28 17:08:47;;;;;;;7.87;6.53;;;4.80;80.70;;;;;;10397757;28;20208;-63
2023/11/28 17:13:52;;;;;;;7.60;6.13;;;4.70;80.90;;;;;;10401157;28;20250;-62
2023/11/28 17:19:03;;;;;;;8.87;7.73;;;4.70;81.40;;;;;;10405967;28;20203;-62
2023/11/28 17:24:07;;;;;;;9.83;7.47;;;4.70;81.30;;;;;;10396621;28;20267;-62
2023/11/28 17:29:13;;;;;;;13.40;8.87;;;4.60;82.50;;;;;;10398906;28;20777;-62
2023/11/28 17:34:17;;;;;;;30.23;16.03;;;4.60;82.30;;;;;;10403111;28;20261;-62
2023/11/28 17:39:21;;;;;;;37.30;24.93;;;4.50;82.40;;;;;;10401127;28;20251;-62
2023/11/28 17:44:26;;;;;;;14.30;9.17;;;4.60;82.50;;;;;;10400421;28;20298;-62
2023/11/28 17:49:30;;;;;;;10.27;8.23;;;4.50;82.40;;;;;;10403969;28;20236;-63
2023/11/28 17:54:33;;;;;;;10.33;8.37;;;4.50;82.40;;;;;;10404781;28;20227;-62
2023/11/28 17:59:40;;;;;;;12.02;10.75;;;4.50;82.60;;;;;;10397653;28;20499;-62
2023/11/28 18:04:44;;;;;;;11.37;8.40;;;4.60;82.30;;;;;;10402400;28;20232;-63
2023/11/28 18:09:47;;;;;;;12.87;9.47;;;4.50;82.10;;;;;;10432552;28;20226;-63
2023/11/28 18:14:52;;;;;;;11.47;7.43;;;4.40;82.50;;;;;;10440688;28;20211;-63
2023/11/28 18:19:56;;;;;;;7.87;7.03;;;4.40;82.60;;;;;;10440521;28;20304;-63
2023/11/28 18:24:59;;;;;;;12.20;8.13;;;4.30;82.60;;;;;;10441742;28;20241;-63
2023/11/28 18:30:06;;;;;;;13.17;9.03;;;4.20;82.60;;;;;;10444325;28;20217;-63
2023/11/28 18:35:09;;;;;;;10.50;8.40;;;4.20;82.90;;;;;;10432628;28;20255;-63
2023/11/28 18:40:13;;;;;;;14.43;10.07;;;4.10;83.10;;;;;;10386485;28;20220;-63
2023/11/28 18:45:19;;;;;;;11.03;9.03;;;4.10;83.40;;;;;;10421277;28;20212;-67
2023/11/28 18:50:24;;;;;;;10.37;8.03;;;4.10;83.70;;;;;;10416255;28;20230;-66
2023/11/28 18:55:28;;;;;;;10.70;8.30;;;4.00;84.00;;;;;;10449119;28;20217;-66
2023/11/28 19:00:36;;;;;;;10.80;8.47;;;4.00;84.30;;;;;;10455544;28;20223;-66
2023/11/28 19:05:40;;;;;;;8.83;7.83;;;3.90;84.40;;;;;;10453249;28;20225;-65
2023/11/28 19:10:43;;;;;;;9.73;7.80;;;3.90;84.40;;;;;;10451870;28;20216;-67
2023/11/28 19:15:48;;;;;;;11.50;8.57;;;3.90;84.50;;;;;;10444448;28;20218;-67
2023/11/28 19:20:52;;;;;;;10.17;8.00;;;3.90;85.00;;;;;;10453302;28;20748;-65
2023/11/28 19:25:56;;;;;;;10.30;7.23;;;3.90;84.90;;;;;;10454447;28;20202;-66
2023/11/28 19:31:01;;;;;;;7.70;6.10;;;3.90;84.90;;;;;;10448051;28;20309;-66
2023/11/28 19:36:05;;;;;;;6.60;5.93;;;3.90;85.30;;;;;;10452461;28;20231;-67
2023/11/28 19:41:10;;;;;;;8.00;5.83;;;3.90;87.40;;;;;;10454548;28;20222;-67
2023/11/28 19:46:15;;;;;;;6.27;5.50;;;3.90;86.00;;;;;;10448071;28;20199;-67
2023/11/28 19:51:20;;;;;;;6.43;5.03;;;3.90;85.20;;;;;;10451706;28;20873;-66
2023/11/28 19:56:24;;;;;;;7.37;5.50;;;3.90;87.10;;;;;;10453847;28;20237;-67
2023/11/28 20:01:30;;;;;;;10.63;5.73;;;3.90;86.20;;;;;;10452060;28;20288;-67
2023/11/28 20:06:34;;;;;;;7.07;5.40;;;3.90;87.00;;;;;;10450243;28;20255;-67
2023/11/28 20:11:38;;;;;;;6.27;5.37;;;3.80;85.50;;;;;;10445040;28;20759;-65
2023/11/28 20:16:44;;;;;;;7.90;5.90;;;3.80;85.30;;;;;;10442772;28;20226;-66
2023/11/28 20:21:47;;;;;;;6.47;5.60;;;3.80;85.10;;;;;;10453036;28;20344;-66
2023/11/28 20:26:55;;;;;;;8.70;6.13;;;3.80;85.50;;;;;;10448996;28;20245;-64
2023/11/28 20:32:00;;;;;;;8.90;6.50;;;3.70;84.80;;;;;;10401950;28;20223;-65
2023/11/28 20:37:07;;;;;;;8.93;6.60;;;3.70;86.60;;;;;;10449498;28;20595;-66
2023/11/28 20:42:25;;;;;;;7.57;6.50;;;3.80;85.00;;;;;;10444716;28;20267;-65
2023/11/28 20:47:30;;;;;;;8.93;7.40;;;3.80;88.00;;;;;;10446791;28;20206;-65
2023/11/28 20:52:34;;;;;;;10.63;6.63;;;3.80;86.00;;;;;;10445451;28;20284;-67
2023/11/28 20:57:37;;;;;;;16.47;11.47;;;3.80;86.80;;;;;;10448382;28;20304;-65
2023/11/28 21:02:42;;;;;;;9.87;7.60;;;3.80;87.80;;;;;;10443924;28;20249;-66
2023/11/28 21:07:46;;;;;;;8.20;6.20;;;3.80;89.70;;;;;;10445505;28;20196;-66
2023/11/28 21:12:50;;;;;;;6.80;6.00;;;3.80;87.90;;;;;;10444132;28;20227;-66
2023/11/28 21:17:58;;;;;;;6.97;6.37;;;3.70;87.20;;;;;;10448090;28;20258;-66
2023/11/28 21:23:02;;;;;;;8.20;6.20;;;3.70;90.00;;;;;;10446172;28;20231;-65
2023/11/28 21:28:06;;;;;;;8.33;6.90;;;3.70;90.20;;;;;;10444062;28;20253;-65
2023/11/28 21:33:13;;;;;;;7.37;6.53;;;3.60;88.50;;;;;;10442031;28;20743;-65
2023/11/28 21:38:16;;;;;;;8.80;6.80;;;3.60;87.40;;;;;;10446383;28;20230;-64
2023/11/28 21:43:23;;;;;;;7.30;6.57;;;3.50;89.70;;;;;;10448699;28;20227;-65
2023/11/28 21:48:30;;;;;;;9.93;7.63;;;3.50;90.10;;;;;;10448525;28;20206;-64
2023/11/28 21:53:35;;;;;;;8.37;6.90;;;3.50;90.50;;;;;;10448074;28;20218;-66
2023/11/28 21:58:39;;;;;;;7.27;6.50;;;3.50;90.80;;;;;;10446780;28;20219;-66
2023/11/28 22:03:44;;;;;;;8.87;6.40;;;3.50;89.60;;;;;;10453817;28;20258;-64
2023/11/28 22:08:48;;;;;;;9.60;6.47;;;3.50;90.50;;;;;;10409584;28;20198;-66
2023/11/28 22:14:02;;;;;;;9.47;7.03;;;3.50;90.00;;;;;;10454299;28;20268;-66
2023/11/28 22:19:08;;;;;;;8.77;7.83;;;3.50;90.70;;;;;;10447045;28;20635;-67
2023/11/28 22:24:12;;;;;;;8.27;7.07;;;3.60;90.80;;;;;;10449830;28;20218;-67
2023/11/28 22:29:16;;;;;;;10.40;7.80;;;3.60;90.40;;;;;;10452847;28;20849;-67
2023/11/28 22:34:21;;;;;;;9.27;8.03;;;3.60;91.00;;;;;;10449226;28;20227;-67
2023/11/28 22:39:25;;;;;;;8.90;7.43;;;3.60;90.90;;;;;;10435836;28;20280;-64
2023/11/28 22:44:29;;;;;;;10.23;7.70;;;3.60;91.00;;;;;;10453377;28;20251;-62
2023/11/28 22:49:34;;;;;;;10.40;8.30;;;3.60;90.50;;;;;;10449244;28;20203;-64
2023/11/28 22:54:37;;;;;;;10.53;7.90;;;3.60;91.20;;;;;;10453542;28;20208;-64
2023/11/28 22:59:42;;;;;;;11.17;7.97;;;3.70;91.70;;;;;;10451021;28;20287;-64
2023/11/28 23:04:47;;;;;;;8.40;7.40;;;3.70;91.30;;;;;;10460768;28;20209;-64
2023/11/28 23:09:50;;;;;;;8.83;7.87;;;3.70;91.50;;;;;;10457531;28;20290;-63
2023/11/28 23:14:54;;;;;;;10.80;8.47;;;3.70;90.50;;;;;;10457783;28;20199;-64
2023/11/28 23:20:00;;;;;;;11.83;8.30;;;3.70;91.00;;;;;;10456742;28;20768;-64
2023/11/28 23:25:04;;;;;;;12.77;8.93;;;3.70;91.20;;;;;;10456178;28;20199;-64
2023/11/28 23:30:09;;;;;;;10.27;8.27;;;3.70;90.40;;;;;;10447736;28;20244;-64
2023/11/28 23:35:16;;;;;;;10.83;7.57;;;3.70;91.20;;;;;;10452244;28;20262;-65
2023/11/28 23:40:20;;;;;;;16.23;9.33;;;3.80;90.80;;;;;;10452570;28;20281;-65
2023/11/28 23:45:23;;;;;;;13.63;8.67;;;3.80;90.80;;;;;;10452179;28;20211;-64
2023/11/28 23:50:28;;;;;;;11.70;8.73;;;3.70;90.00;;;;;;10442747;28;20219;-65
2023/11/28 23:55:33;;;;;;;14.50;9.33;;;3.70;90.20;;;;;;10440109;28;20208;-65
